sensor_id;sensor_type;location;lat;lon;timestamp;pressure;altitude;pressure_sealevel;temperature;humidity
61870;BME280;47810;42.264;23.826;2023-08-30T00:00:32;92876.56;;;20.33;57.50
61870;BME280;47810;42.264;23.826;2023-08-30T00:02:57;92877.56;;;20.17;57.72
61870;BME280;47810;42.264;23.826;2023-08-30T00:05:23;92867.56;;;20.25;57.35
61870;BME280;47810;42.264;23.826;2023-08-30T00:07:48;92875.25;;;20.29;57.37
61870;BME280;47810;42.264;23.826;2023-08-30T00:10:14;92878.59;;;20.31;60.01
61870;BME280;47810;42.264;23.826;2023-08-30T00:12:39;92873.59;;;20.28;60.63
61870;BME280;47810;42.264;23.826;2023-08-30T00:15:05;92871.25;;;20.24;60.99
61870;BME280;47810;42.264;23.826;2023-08-30T00:17:31;92871.16;;;20.18;60.62
61870;BME280;47810;42.264;23.826;2023-08-30T00:19:56;92874.25;;;19.92;61.55
61870;BME280;47810;42.264;23.826;2023-08-30T00:22:22;92879.50;;;19.85;62.12
61870;BME280;47810;42.264;23.826;2023-08-30T00:24:49;92867.50;;;19.81;62.85
61870;BME280;47810;42.264;23.826;2023-08-30T00:27:14;92869.38;;;19.72;61.57
61870;BME280;47810;42.264;23.826;2023-08-30T00:29:40;92864.69;;;19.74;61.76
61870;BME280;47810;42.264;23.826;2023-08-30T00:32:05;92878.38;;;19.80;62.69
61870;BME280;47810;42.264;23.826;2023-08-30T00:34:31;92870.53;;;19.93;62.17
61870;BME280;47810;42.264;23.826;2023-08-30T00:36:56;92872.44;;;20.07;61.19
61870;BME280;47810;42.264;23.826;2023-08-30T00:39:22;92879.09;;;20.11;61.30
61870;BME280;47810;42.264;23.826;2023-08-30T00:41:48;92879.09;;;20.11;61.50
61870;BME280;47810;42.264;23.826;2023-08-30T00:44:13;92876.38;;;19.96;59.80
61870;BME280;47810;42.264;23.826;2023-08-30T00:46:39;92878.56;;;19.78;60.09
61870;BME280;47810;42.264;23.826;2023-08-30T00:49:04;92880.53;;;19.99;60.12
61870;BME280;47810;42.264;23.826;2023-08-30T00:51:31;92878.16;;;20.04;61.21
61870;BME280;47810;42.264;23.826;2023-08-30T00:53:57;92881.56;;;20.36;58.65
61870;BME280;47810;42.264;23.826;2023-08-30T00:56:24;92886.69;;;20.08;59.67
61870;BME280;47810;42.264;23.826;2023-08-30T00:58:49;92890.53;;;20.05;60.10
61870;BME280;47810;42.264;23.826;2023-08-30T01:01:16;92897.09;;;20.02;62.63
61870;BME280;47810;42.264;23.826;2023-08-30T01:03:41;92894.59;;;20.01;62.43
61870;BME280;47810;42.264;23.826;2023-08-30T01:06:07;92909.09;;;19.92;62.53
61870;BME280;47810;42.264;23.826;2023-08-30T01:08:33;92910.09;;;19.91;62.93
61870;BME280;47810;42.264;23.826;2023-08-30T01:13:35;92917.81;;;19.63;63.92
61870;BME280;47810;42.264;23.826;2023-08-30T01:16:02;92919.00;;;19.60;63.43
61870;BME280;47810;42.264;23.826;2023-08-30T01:18:29;92914.91;;;19.72;62.85
61870;BME280;47810;42.264;23.826;2023-08-30T01:20:57;92913.63;;;19.60;63.70
61870;BME280;47810;42.264;23.826;2023-08-30T01:23:29;92926.72;;;19.55;63.89
61870;BME280;47810;42.264;23.826;2023-08-30T01:28:33;92926.44;;;19.42;64.11
61870;BME280;47810;42.264;23.826;2023-08-30T01:30:59;92929.44;;;19.47;64.61
61870;BME280;47810;42.264;23.826;2023-08-30T01:33:24;92930.38;;;19.31;63.89
61870;BME280;47810;42.264;23.826;2023-08-30T01:35:56;92934.41;;;19.27;64.91
61870;BME280;47810;42.264;23.826;2023-08-30T01:38:23;92924.91;;;19.16;64.70
61870;BME280;47810;42.264;23.826;2023-08-30T01:40:50;92932.13;;;19.16;64.69
61870;BME280;47810;42.264;23.826;2023-08-30T01:43:16;92925.78;;;19.17;64.40
61870;BME280;47810;42.264;23.826;2023-08-30T01:45:43;92927.81;;;19.06;64.02
61870;BME280;47810;42.264;23.826;2023-08-30T01:48:09;92931.75;;;19.19;63.86
61870;BME280;47810;42.264;23.826;2023-08-30T01:50:36;92929.91;;;19.19;63.52
61870;BME280;47810;42.264;23.826;2023-08-30T01:53:02;92929.28;;;19.17;63.64
61870;BME280;47810;42.264;23.826;2023-08-30T01:55:28;92925.81;;;19.08;64.32
61870;BME280;47810;42.264;23.826;2023-08-30T01:57:54;92916.53;;;19.19;64.37
61870;BME280;47810;42.264;23.826;2023-08-30T02:00:20;92917.91;;;19.15;64.62
61870;BME280;47810;42.264;23.826;2023-08-30T02:02:46;92922.75;;;19.20;65.01
61870;BME280;47810;42.264;23.826;2023-08-30T02:05:11;92915.28;;;19.07;64.64
61870;BME280;47810;42.264;23.826;2023-08-30T02:10:08;92933.63;;;18.79;65.69
61870;BME280;47810;42.264;23.826;2023-08-30T02:12:44;92933.09;;;18.83;65.51
61870;BME280;47810;42.264;23.826;2023-08-30T02:15:11;92932.41;;;18.90;65.36
61870;BME280;47810;42.264;23.826;2023-08-30T02:17:37;92928.41;;;18.77;65.36
61870;BME280;47810;42.264;23.826;2023-08-30T02:20:04;92924.25;;;18.67;66.55
61870;BME280;47810;42.264;23.826;2023-08-30T02:22:30;92917.56;;;18.71;66.13
61870;BME280;47810;42.264;23.826;2023-08-30T02:24:56;92910.03;;;18.74;65.62
61870;BME280;47810;42.264;23.826;2023-08-30T02:27:23;92904.19;;;18.71;66.62
61870;BME280;47810;42.264;23.826;2023-08-30T02:29:48;92903.75;;;18.59;65.99
61870;BME280;47810;42.264;23.826;2023-08-30T02:32:16;92907.44;;;18.42;66.41
61870;BME280;47810;42.264;23.826;2023-08-30T02:34:47;92912.06;;;18.64;66.35
61870;BME280;47810;42.264;23.826;2023-08-30T02:37:12;92903.06;;;18.65;66.46
61870;BME280;47810;42.264;23.826;2023-08-30T02:39:38;92909.44;;;18.56;65.73
61870;BME280;47810;42.264;23.826;2023-08-30T02:42:04;92907.09;;;18.53;65.87
61870;BME280;47810;42.264;23.826;2023-08-30T02:44:29;92900.72;;;18.62;66.70
61870;BME280;47810;42.264;23.826;2023-08-30T02:46:55;92901.03;;;18.67;66.14
61870;BME280;47810;42.264;23.826;2023-08-30T02:49:20;92894.13;;;18.81;65.85
61870;BME280;47810;42.264;23.826;2023-08-30T02:51:46;92898.53;;;18.74;65.25
61870;BME280;47810;42.264;23.826;2023-08-30T02:54:11;92905.72;;;18.73;65.47
61870;BME280;47810;42.264;23.826;2023-08-30T02:56:39;92912.97;;;19.04;65.09
61870;BME280;47810;42.264;23.826;2023-08-30T02:59:05;92909.19;;;19.21;65.29
61870;BME280;47810;42.264;23.826;2023-08-30T03:01:31;92905.44;;;18.99;64.56
61870;BME280;47810;42.264;23.826;2023-08-30T03:03:56;92899.88;;;19.09;65.49
61870;BME280;47810;42.264;23.826;2023-08-30T03:06:22;92902.53;;;19.17;65.51
61870;BME280;47810;42.264;23.826;2023-08-30T03:08:47;92898.22;;;19.08;65.71
61870;BME280;47810;42.264;23.826;2023-08-30T03:11:13;92902.75;;;18.99;65.66
61870;BME280;47810;42.264;23.826;2023-08-30T03:13:39;92908.38;;;18.81;65.16
61870;BME280;47810;42.264;23.826;2023-08-30T03:16:14;92913.44;;;18.52;66.19
61870;BME280;47810;42.264;23.826;2023-08-30T03:18:40;92917.13;;;18.51;66.56
61870;BME280;47810;42.264;23.826;2023-08-30T03:21:06;92921.47;;;18.44;66.82
61870;BME280;47810;42.264;23.826;2023-08-30T03:23:32;92923.59;;;18.65;66.30
61870;BME280;47810;42.264;23.826;2023-08-30T03:25:58;92939.81;;;18.55;66.58
61870;BME280;47810;42.264;23.826;2023-08-30T03:28:24;92933.16;;;18.59;66.38
61870;BME280;47810;42.264;23.826;2023-08-30T03:30:50;92931.78;;;18.63;67.75
61870;BME280;47810;42.264;23.826;2023-08-30T03:33:15;92930.97;;;18.54;68.46
61870;BME280;47810;42.264;23.826;2023-08-30T03:35:41;92924.13;;;18.52;68.55
61870;BME280;47810;42.264;23.826;2023-08-30T03:38:09;92939.19;;;18.45;69.06
61870;BME280;47810;42.264;23.826;2023-08-30T03:40:34;92934.34;;;18.32;69.30
61870;BME280;47810;42.264;23.826;2023-08-30T03:43:00;92950.22;;;18.25;69.71
61870;BME280;47810;42.264;23.826;2023-08-30T03:45:26;92951.41;;;18.23;69.27
61870;BME280;47810;42.264;23.826;2023-08-30T03:47:51;92939.38;;;18.10;69.74
61870;BME280;47810;42.264;23.826;2023-08-30T03:50:17;92934.22;;;18.17;70.11
61870;BME280;47810;42.264;23.826;2023-08-30T03:52:43;92938.88;;;18.15;70.36
61870;BME280;47810;42.264;23.826;2023-08-30T03:55:08;92939.91;;;18.06;70.21
61870;BME280;47810;42.264;23.826;2023-08-30T03:57:36;92951.25;;;18.08;69.62
61870;BME280;47810;42.264;23.826;2023-08-30T04:00:02;92938.56;;;18.02;69.46
61870;BME280;47810;42.264;23.826;2023-08-30T04:02:29;92937.22;;;17.98;70.00
61870;BME280;47810;42.264;23.826;2023-08-30T04:04:54;92931.88;;;18.06;70.47
61870;BME280;47810;42.264;23.826;2023-08-30T04:07:20;92927.22;;;18.08;70.17
61870;BME280;47810;42.264;23.826;2023-08-30T04:09:45;92933.72;;;17.89;70.10
61870;BME280;47810;42.264;23.826;2023-08-30T04:12:11;92934.53;;;17.81;70.65
61870;BME280;47810;42.264;23.826;2023-08-30T04:14:36;92934.88;;;17.86;70.70
61870;BME280;47810;42.264;23.826;2023-08-30T04:17:02;92927.84;;;17.69;71.17
61870;BME280;47810;42.264;23.826;2023-08-30T04:19:27;92934.53;;;17.73;71.22
61870;BME280;47810;42.264;23.826;2023-08-30T04:21:53;92938.22;;;17.80;70.69
61870;BME280;47810;42.264;23.826;2023-08-30T04:24:18;92940.56;;;18.00;69.78
61870;BME280;47810;42.264;23.826;2023-08-30T04:26:44;92941.72;;;18.13;69.88
61870;BME280;47810;42.264;23.826;2023-08-30T04:29:09;92947.25;;;18.12;70.89
61870;BME280;47810;42.264;23.826;2023-08-30T04:31:35;92946.41;;;18.28;70.05
61870;BME280;47810;42.264;23.826;2023-08-30T04:34:01;92949.88;;;18.45;68.92
61870;BME280;47810;42.264;23.826;2023-08-30T04:36:26;92956.19;;;18.52;68.74
61870;BME280;47810;42.264;23.826;2023-08-30T04:38:52;92955.56;;;18.42;69.56
61870;BME280;47810;42.264;23.826;2023-08-30T04:41:18;92954.03;;;18.47;70.62
61870;BME280;47810;42.264;23.826;2023-08-30T04:43:44;92957.19;;;18.75;69.91
61870;BME280;47810;42.264;23.826;2023-08-30T04:46:10;92977.03;;;18.81;70.11
61870;BME280;47810;42.264;23.826;2023-08-30T04:48:36;92979.56;;;18.82;70.53
61870;BME280;47810;42.264;23.826;2023-08-30T04:51:02;92977.75;;;18.75;70.58
61870;BME280;47810;42.264;23.826;2023-08-30T04:53:30;92978.25;;;18.62;72.68
61870;BME280;47810;42.264;23.826;2023-08-30T04:55:56;92979.56;;;18.82;71.87
61870;BME280;47810;42.264;23.826;2023-08-30T04:58:21;92981.91;;;18.77;71.90
61870;BME280;47810;42.264;23.826;2023-08-30T05:00:47;92972.56;;;18.81;72.08
61870;BME280;47810;42.264;23.826;2023-08-30T05:03:12;92978.75;;;18.66;72.31
61870;BME280;47810;42.264;23.826;2023-08-30T05:05:38;92980.88;;;18.87;72.42
61870;BME280;47810;42.264;23.826;2023-08-30T05:08:04;92983.75;;;18.85;72.89
61870;BME280;47810;42.264;23.826;2023-08-30T05:10:34;92984.91;;;18.82;71.78
61870;BME280;47810;42.264;23.826;2023-08-30T05:13:00;92986.56;;;18.92;71.40
61870;BME280;47810;42.264;23.826;2023-08-30T05:15:26;92985.53;;;19.01;71.10
61870;BME280;47810;42.264;23.826;2023-08-30T05:17:52;92991.53;;;19.11;73.32
61870;BME280;47810;42.264;23.826;2023-08-30T05:20:17;92989.88;;;19.02;71.41
61870;BME280;47810;42.264;23.826;2023-08-30T05:22:42;92983.31;;;19.13;70.81
61870;BME280;47810;42.264;23.826;2023-08-30T05:25:08;92991.00;;;19.55;72.37
61870;BME280;47810;42.264;23.826;2023-08-30T05:27:34;93000.25;;;19.44;72.44
61870;BME280;47810;42.264;23.826;2023-08-30T05:30:00;93007.44;;;19.44;75.93
61870;BME280;47810;42.264;23.826;2023-08-30T05:32:26;93000.72;;;19.48;75.29
61870;BME280;47810;42.264;23.826;2023-08-30T05:34:51;93006.75;;;19.50;76.28
61870;BME280;47810;42.264;23.826;2023-08-30T05:37:17;93007.75;;;19.49;79.23
61870;BME280;47810;42.264;23.826;2023-08-30T05:39:42;93005.38;;;19.54;78.85
61870;BME280;47810;42.264;23.826;2023-08-30T05:42:08;93012.41;;;19.55;76.90
61870;BME280;47810;42.264;23.826;2023-08-30T05:44:33;93018.13;;;19.52;80.20
61870;BME280;47810;42.264;23.826;2023-08-30T05:46:59;93008.06;;;19.54;79.22
61870;BME280;47810;42.264;23.826;2023-08-30T05:49:24;93005.78;;;19.43;81.06
61870;BME280;47810;42.264;23.826;2023-08-30T05:51:50;93021.16;;;19.41;78.89
61870;BME280;47810;42.264;23.826;2023-08-30T05:54:16;93013.88;;;19.26;80.53
61870;BME280;47810;42.264;23.826;2023-08-30T05:56:41;93011.16;;;19.35;81.08
61870;BME280;47810;42.264;23.826;2023-08-30T05:59:07;92995.94;;;19.35;80.61
61870;BME280;47810;42.264;23.826;2023-08-30T06:01:33;92992.75;;;19.40;79.52
61870;BME280;47810;42.264;23.826;2023-08-30T06:03:58;93004.75;;;19.44;82.29
61870;BME280;47810;42.264;23.826;2023-08-30T06:06:24;93001.13;;;19.28;80.43
61870;BME280;47810;42.264;23.826;2023-08-30T06:08:49;92994.41;;;19.41;79.39
61870;BME280;47810;42.264;23.826;2023-08-30T06:11:15;92997.06;;;19.49;81.75
61870;BME280;47810;42.264;23.826;2023-08-30T06:13:41;92999.09;;;19.39;80.21
61870;BME280;47810;42.264;23.826;2023-08-30T06:16:06;92999.06;;;19.47;79.28
61870;BME280;47810;42.264;23.826;2023-08-30T06:18:32;93000.66;;;19.64;78.47
61870;BME280;47810;42.264;23.826;2023-08-30T06:20:59;93012.00;;;19.74;77.91
61870;BME280;47810;42.264;23.826;2023-08-30T06:23:24;93012.25;;;19.88;77.29
61870;BME280;47810;42.264;23.826;2023-08-30T06:25:56;93010.41;;;19.88;77.91
61870;BME280;47810;42.264;23.826;2023-08-30T06:28:22;93020.31;;;19.88;78.33
61870;BME280;47810;42.264;23.826;2023-08-30T06:30:48;93025.34;;;19.83;78.24
61870;BME280;47810;42.264;23.826;2023-08-30T06:33:13;93034.06;;;19.85;77.74
61870;BME280;47810;42.264;23.826;2023-08-30T06:35:39;93031.38;;;19.85;78.04
61870;BME280;47810;42.264;23.826;2023-08-30T06:38:05;93010.56;;;19.87;78.07
61870;BME280;47810;42.264;23.826;2023-08-30T06:40:30;93005.19;;;19.95;78.53
61870;BME280;47810;42.264;23.826;2023-08-30T06:43:00;93010.44;;;20.11;79.07
61870;BME280;47810;42.264;23.826;2023-08-30T06:45:26;93020.75;;;20.22;77.66
61870;BME280;47810;42.264;23.826;2023-08-30T06:47:51;93014.13;;;20.56;76.34
61870;BME280;47810;42.264;23.826;2023-08-30T06:50:18;93020.19;;;20.50;75.21
61870;BME280;47810;42.264;23.826;2023-08-30T06:52:45;93012.81;;;20.52;78.58
61870;BME280;47810;42.264;23.826;2023-08-30T06:55:12;93013.41;;;20.39;79.19
61870;BME280;47810;42.264;23.826;2023-08-30T06:57:37;93021.81;;;20.59;79.97
61870;BME280;47810;42.264;23.826;2023-08-30T07:00:03;93025.44;;;20.66;78.29
61870;BME280;47810;42.264;23.826;2023-08-30T07:02:33;93024.75;;;20.41;77.51
61870;BME280;47810;42.264;23.826;2023-08-30T07:05:00;93018.94;;;20.38;76.93
61870;BME280;47810;42.264;23.826;2023-08-30T07:07:26;93019.78;;;20.61;78.17
61870;BME280;47810;42.264;23.826;2023-08-30T07:09:51;93019.16;;;20.74;77.08
61870;BME280;47810;42.264;23.826;2023-08-30T07:12:17;93010.56;;;20.79;74.72
61870;BME280;47810;42.264;23.826;2023-08-30T07:14:43;93015.88;;;20.87;75.27
61870;BME280;47810;42.264;23.826;2023-08-30T07:17:09;93017.66;;;21.39;73.12
61870;BME280;47810;42.264;23.826;2023-08-30T07:19:34;93019.47;;;21.24;72.97
61870;BME280;47810;42.264;23.826;2023-08-30T07:22:00;93014.88;;;21.47;73.19
61870;BME280;47810;42.264;23.826;2023-08-30T07:24:25;93011.31;;;21.76;72.80
61870;BME280;47810;42.264;23.826;2023-08-30T07:26:51;93021.94;;;21.84;70.42
61870;BME280;47810;42.264;23.826;2023-08-30T07:29:17;93012.41;;;21.82;66.54
61870;BME280;47810;42.264;23.826;2023-08-30T07:31:43;93012.16;;;22.13;69.71
61870;BME280;47810;42.264;23.826;2023-08-30T07:34:09;93012.69;;;22.45;67.97
61870;BME280;47810;42.264;23.826;2023-08-30T07:36:35;93010.31;;;22.56;64.94
61870;BME280;47810;42.264;23.826;2023-08-30T07:39:00;93009.63;;;22.76;62.80
61870;BME280;47810;42.264;23.826;2023-08-30T07:41:27;93020.94;;;22.65;62.86
61870;BME280;47810;42.264;23.826;2023-08-30T07:43:52;93011.91;;;22.94;63.09
61870;BME280;47810;42.264;23.826;2023-08-30T07:46:18;93015.13;;;23.11;63.12
61870;BME280;47810;42.264;23.826;2023-08-30T07:48:44;93017.06;;;23.23;61.34
61870;BME280;47810;42.264;23.826;2023-08-30T07:51:10;93014.47;;;23.43;66.98
61870;BME280;47810;42.264;23.826;2023-08-30T07:53:36;93015.59;;;23.56;61.76
61870;BME280;47810;42.264;23.826;2023-08-30T07:56:01;93015.22;;;23.65;59.18
61870;BME280;47810;42.264;23.826;2023-08-30T07:58:27;93018.28;;;23.90;61.87
61870;BME280;47810;42.264;23.826;2023-08-30T08:00:52;93020.81;;;23.99;56.79
61870;BME280;47810;42.264;23.826;2023-08-30T08:03:22;93020.16;;;23.97;57.57
61870;BME280;47810;42.264;23.826;2023-08-30T08:05:47;93017.94;;;24.13;57.74
61870;BME280;47810;42.264;23.826;2023-08-30T08:08:13;93017.25;;;24.53;56.77
61870;BME280;47810;42.264;23.826;2023-08-30T08:10:40;93018.22;;;24.38;59.24
61870;BME280;47810;42.264;23.826;2023-08-30T08:13:06;93025.03;;;24.28;60.33
61870;BME280;47810;42.264;23.826;2023-08-30T08:15:32;93015.91;;;24.35;56.75
61870;BME280;47810;42.264;23.826;2023-08-30T08:18:00;93016.31;;;24.32;55.57
61870;BME280;47810;42.264;23.826;2023-08-30T08:20:26;93016.84;;;24.62;57.05
61870;BME280;47810;42.264;23.826;2023-08-30T08:22:52;93018.72;;;24.89;57.95
61870;BME280;47810;42.264;23.826;2023-08-30T08:25:19;93018.91;;;24.80;53.59
61870;BME280;47810;42.264;23.826;2023-08-30T08:27:49;93018.91;;;24.67;57.15
61870;BME280;47810;42.264;23.826;2023-08-30T08:30:16;93012.28;;;24.63;52.82
61870;BME280;47810;42.264;23.826;2023-08-30T08:32:41;93010.16;;;24.65;53.89
61870;BME280;47810;42.264;23.826;2023-08-30T08:35:07;93014.34;;;24.68;54.02
61870;BME280;47810;42.264;23.826;2023-08-30T08:37:34;93011.03;;;24.99;55.38
61870;BME280;47810;42.264;23.826;2023-08-30T08:40:00;93008.13;;;25.33;52.88
61870;BME280;47810;42.264;23.826;2023-08-30T08:42:25;93006.38;;;25.66;50.58
61870;BME280;47810;42.264;23.826;2023-08-30T08:44:53;93000.56;;;25.62;49.77
61870;BME280;47810;42.264;23.826;2023-08-30T08:47:20;93001.41;;;25.56;48.08
61870;BME280;47810;42.264;23.826;2023-08-30T08:49:46;93009.56;;;25.29;50.10
61870;BME280;47810;42.264;23.826;2023-08-30T08:52:13;93014.69;;;25.64;50.20
61870;BME280;47810;42.264;23.826;2023-08-30T08:54:39;93005.94;;;25.75;48.02
61870;BME280;47810;42.264;23.826;2023-08-30T08:57:05;92999.09;;;25.66;48.22
61870;BME280;47810;42.264;23.826;2023-08-30T08:59:31;93004.34;;;25.41;51.94
61870;BME280;47810;42.264;23.826;2023-08-30T09:01:57;93000.16;;;25.59;53.30
61870;BME280;47810;42.264;23.826;2023-08-30T09:04:22;92995.09;;;25.89;49.67
61870;BME280;47810;42.264;23.826;2023-08-30T09:06:48;92996.72;;;26.35;48.72
61870;BME280;47810;42.264;23.826;2023-08-30T09:09:17;92988.75;;;26.08;49.85
61870;BME280;47810;42.264;23.826;2023-08-30T09:11:43;92992.88;;;26.17;47.49
61870;BME280;47810;42.264;23.826;2023-08-30T09:14:10;92987.03;;;26.20;48.85
61870;BME280;47810;42.264;23.826;2023-08-30T09:16:36;92988.31;;;26.11;47.18
61870;BME280;47810;42.264;23.826;2023-08-30T09:19:02;92982.50;;;26.14;47.45
61870;BME280;47810;42.264;23.826;2023-08-30T09:21:28;92979.66;;;25.96;48.58
61870;BME280;47810;42.264;23.826;2023-08-30T09:24:01;92980.75;;;26.27;48.80
61870;BME280;47810;42.264;23.826;2023-08-30T09:26:28;92982.25;;;26.54;48.29
61870;BME280;47810;42.264;23.826;2023-08-30T09:28:55;92981.91;;;26.76;46.99
61870;BME280;47810;42.264;23.826;2023-08-30T09:31:20;92976.06;;;27.04;47.81
61870;BME280;47810;42.264;23.826;2023-08-30T09:33:46;92978.81;;;27.22;47.47
61870;BME280;47810;42.264;23.826;2023-08-30T09:36:14;92973.59;;;27.46;45.17
61870;BME280;47810;42.264;23.826;2023-08-30T09:38:40;92977.16;;;27.64;44.33
61870;BME280;47810;42.264;23.826;2023-08-30T09:41:06;92970.63;;;27.91;42.75
61870;BME280;47810;42.264;23.826;2023-08-30T09:43:34;92978.06;;;28.14;45.75
61870;BME280;47810;42.264;23.826;2023-08-30T09:46:03;92968.03;;;28.44;46.17
61870;BME280;47810;42.264;23.826;2023-08-30T09:48:29;92966.50;;;28.78;45.15
61870;BME280;47810;42.264;23.826;2023-08-30T09:50:54;92968.44;;;29.01;42.79
61870;BME280;47810;42.264;23.826;2023-08-30T09:53:26;92966.06;;;28.93;43.12
61870;BME280;47810;42.264;23.826;2023-08-30T09:55:53;92970.88;;;28.91;42.87
61870;BME280;47810;42.264;23.826;2023-08-30T09:58:21;92970.97;;;28.73;44.36
61870;BME280;47810;42.264;23.826;2023-08-30T10:00:47;92964.47;;;28.74;44.62
61870;BME280;47810;42.264;23.826;2023-08-30T10:03:12;92957.06;;;28.93;43.25
61870;BME280;47810;42.264;23.826;2023-08-30T10:05:38;92962.22;;;29.13;43.06
61870;BME280;47810;42.264;23.826;2023-08-30T10:08:04;92958.66;;;29.47;43.25
61870;BME280;47810;42.264;23.826;2023-08-30T10:10:31;92959.63;;;29.65;41.64
61870;BME280;47810;42.264;23.826;2023-08-30T10:12:57;92959.84;;;29.52;40.71
61870;BME280;47810;42.264;23.826;2023-08-30T10:15:24;92959.63;;;29.65;40.33
61870;BME280;47810;42.264;23.826;2023-08-30T10:17:52;92955.81;;;29.42;43.89
61870;BME280;47810;42.264;23.826;2023-08-30T10:20:19;92957.38;;;29.38;40.78
61870;BME280;47810;42.264;23.826;2023-08-30T10:22:45;92963.28;;;29.70;41.28
61870;BME280;47810;42.264;23.826;2023-08-30T10:25:13;92953.09;;;30.18;41.35
61870;BME280;47810;42.264;23.826;2023-08-30T10:27:43;92941.00;;;30.54;39.90
61870;BME280;47810;42.264;23.826;2023-08-30T10:30:09;92941.66;;;30.45;38.71
61870;BME280;47810;42.264;23.826;2023-08-30T10:32:39;92938.44;;;29.08;39.09
61870;BME280;47810;42.264;23.826;2023-08-30T10:35:05;92938.03;;;28.81;41.65
61870;BME280;47810;42.264;23.826;2023-08-30T10:37:31;92936.53;;;28.43;42.62
61870;BME280;47810;42.264;23.826;2023-08-30T10:40:00;92934.47;;;28.92;41.64
61870;BME280;47810;42.264;23.826;2023-08-30T10:42:29;92943.25;;;29.53;40.65
61870;BME280;47810;42.264;23.826;2023-08-30T10:47:27;92940.81;;;30.04;41.09
61870;BME280;47810;42.264;23.826;2023-08-30T10:49:56;92937.03;;;30.05;43.78
61870;BME280;47810;42.264;23.826;2023-08-30T10:52:22;92931.81;;;29.63;39.56
61870;BME280;47810;42.264;23.826;2023-08-30T10:54:48;92936.19;;;29.05;41.49
61870;BME280;47810;42.264;23.826;2023-08-30T10:57:15;92929.50;;;28.66;40.55
61870;BME280;47810;42.264;23.826;2023-08-30T10:59:47;92925.97;;;28.77;41.56
61870;BME280;47810;42.264;23.826;2023-08-30T11:02:26;92929.56;;;28.89;40.41
61870;BME280;47810;42.264;23.826;2023-08-30T11:04:51;92927.13;;;28.58;41.26
61870;BME280;47810;42.264;23.826;2023-08-30T11:07:17;92929.81;;;28.16;41.61
61870;BME280;47810;42.264;23.826;2023-08-30T11:09:44;92935.97;;;28.23;41.40
61870;BME280;47810;42.264;23.826;2023-08-30T11:12:09;92932.31;;;28.29;41.50
61870;BME280;47810;42.264;23.826;2023-08-30T11:14:35;92937.09;;;28.15;40.16
61870;BME280;47810;42.264;23.826;2023-08-30T11:17:00;92935.56;;;27.89;41.62
61870;BME280;47810;42.264;23.826;2023-08-30T11:19:29;92931.19;;;27.70;42.86
61870;BME280;47810;42.264;23.826;2023-08-30T11:21:55;92942.47;;;27.67;43.42
61870;BME280;47810;42.264;23.826;2023-08-30T11:24:21;92941.06;;;27.82;46.69
61870;BME280;47810;42.264;23.826;2023-08-30T11:26:46;92931.94;;;27.77;42.72
61870;BME280;47810;42.264;23.826;2023-08-30T11:29:17;92926.41;;;28.02;43.48
61870;BME280;47810;42.264;23.826;2023-08-30T11:31:43;92928.03;;;27.91;43.80
61870;BME280;47810;42.264;23.826;2023-08-30T11:34:10;92929.38;;;28.00;46.21
61870;BME280;47810;42.264;23.826;2023-08-30T11:36:36;92928.47;;;27.88;44.51
61870;BME280;47810;42.264;23.826;2023-08-30T11:39:02;92924.94;;;27.69;42.92
61870;BME280;47810;42.264;23.826;2023-08-30T11:41:29;92920.88;;;27.23;43.12
61870;BME280;47810;42.264;23.826;2023-08-30T11:43:56;92933.75;;;27.03;43.80
61870;BME280;47810;42.264;23.826;2023-08-30T11:46:23;92930.59;;;27.49;44.53
61870;BME280;47810;42.264;23.826;2023-08-30T11:48:50;92920.78;;;27.67;44.60
61870;BME280;47810;42.264;23.826;2023-08-30T11:51:16;92918.16;;;27.97;43.11
61870;BME280;47810;42.264;23.826;2023-08-30T11:53:42;92915.72;;;28.07;46.04
61870;BME280;47810;42.264;23.826;2023-08-30T11:56:08;92916.53;;;28.07;43.61
61870;BME280;47810;42.264;23.826;2023-08-30T11:58:34;92924.47;;;28.09;43.66
61870;BME280;47810;42.264;23.826;2023-08-30T12:01:01;92919.31;;;28.49;45.26
61870;BME280;47810;42.264;23.826;2023-08-30T12:03:27;92926.75;;;28.24;43.73
61870;BME280;47810;42.264;23.826;2023-08-30T12:05:53;92917.72;;;28.12;43.90
61870;BME280;47810;42.264;23.826;2023-08-30T12:10:45;92915.81;;;28.84;41.91
61870;BME280;47810;42.264;23.826;2023-08-30T12:13:27;92909.56;;;28.84;43.10
61870;BME280;47810;42.264;23.826;2023-08-30T12:15:53;92908.03;;;28.88;41.92
61870;BME280;47810;42.264;23.826;2023-08-30T12:18:26;92906.72;;;28.90;40.72
61870;BME280;47810;42.264;23.826;2023-08-30T12:20:59;92904.47;;;28.64;41.51
61870;BME280;47810;42.264;23.826;2023-08-30T12:23:27;92897.34;;;28.63;43.17
61870;BME280;47810;42.264;23.826;2023-08-30T12:28:29;92893.53;;;28.40;39.93
61870;BME280;47810;42.264;23.826;2023-08-30T12:30:55;92894.19;;;28.54;42.50
61870;BME280;47810;42.264;23.826;2023-08-30T12:33:23;92883.66;;;28.27;41.73
61870;BME280;47810;42.264;23.826;2023-08-30T12:35:53;92880.63;;;28.89;40.05
61870;BME280;47810;42.264;23.826;2023-08-30T12:38:19;92876.38;;;28.93;40.84
61870;BME280;47810;42.264;23.826;2023-08-30T12:40:45;92874.97;;;29.26;41.55
61870;BME280;47810;42.264;23.826;2023-08-30T12:43:11;92879.53;;;29.37;38.82
61870;BME280;47810;42.264;23.826;2023-08-30T12:45:38;92879.31;;;29.39;41.49
61870;BME280;47810;42.264;23.826;2023-08-30T12:48:03;92877.56;;;29.21;39.63
61870;BME280;47810;42.264;23.826;2023-08-30T12:50:29;92872.59;;;29.41;44.56
61870;BME280;47810;42.264;23.826;2023-08-30T12:52:55;92870.44;;;29.43;45.03
61870;BME280;47810;42.264;23.826;2023-08-30T12:55:20;92874.00;;;29.32;41.42
61870;BME280;47810;42.264;23.826;2023-08-30T12:57:46;92876.00;;;29.37;41.59
61870;BME280;47810;42.264;23.826;2023-08-30T13:00:12;92883.94;;;29.38;40.99